Airfield :
LOGIN :

Register | Disclaimer

   EN    FR    IT 

 










Legend :    VFR   Marginal VFR   IFR   Intensive IFR   Very Intensive IFR
Visi :
Ceiling :
>= 8 km
>= 3000ft
5 to 8 km
1000 to 3000 ft
1500m to 5 km
500 to 1000 ft
800 to 1500m
200 to 500 ft
< 800m
< 200 ft
Symbols :   Thunderstorms  Fog  Heavy snow  Heavy precipitations  Wind > 20 kt
SIGMETs :     Misc.  Thunderstorms  Icing  Turbulence  Mountain Waves  Volcanic Ashes







- Airport Elevation : 33 ft
- IATA code : MHZ


EGUN - RAF Mildenhall

CURRENT METAR :
  • 181756Z AUTO 15009KT 9999 BKN100 04/03 A2993 RMK AO2 SLP139 T00410032 10047 20033 57009 .

EXPIRED METARs :
  • 181656Z AUTO 14011KT 9999 CLR 04/04 A2994 RMK AO2 SLP142 T00420041 .
  • 181556Z AUTO 14010KT 9999 CLR 05/05 A2995 RMK AO2 SLP146 T00460045 .

TAF AMD TAF EGUN
Valid from the 18 at 17:00 until the 19 at 18:00 UTC


181715Z 1817/1918 17012KT 9999 SCT010 BKN025 QNH2991INS
BECMG 1822/1823 16012KT 9999 BKN015 QNH2983INS
BECMG 1905/1906 15012KT 8000 -SHRA BKN010 QNH2983INS
BECMG 1910/1911 14012G20KT 9999 NSW BKN015 QNH2979INS TX04/1817Z TN02/1908Z LAST NO AMDS AFT 1818 NEXT 2204
No reported NOTAMs for that airfield.



MET'MAP, your aeronautical weather chart ! - Copyright ORBIFLY December 2007 - Disclaimer

ORBIFLY MET'MAP TEAM :

Programming & Development : Alexandra Zaïnal
Concept & Development : Baudouin d'Aumeries
Co-Development & Prog : Marc-Olivier Méhu
Technical & hardware support : Manuel Goepfert

Contact : metmap@orbifly.com




SOURCES & CREDITS :

   NOAA